createdAt,value
2023-03-05T00:00:47.660Z,84.18
2023-03-05T00:03:14.181Z,84.28
2023-03-05T00:05:40.668Z,84.40
2023-03-05T00:08:07.366Z,84.70
2023-03-05T00:10:33.881Z,84.65
2023-03-05T00:13:00.225Z,85.25
2023-03-05T00:15:26.571Z,84.65
2023-03-05T00:17:53.138Z,84.95
2023-03-05T00:20:19.571Z,85.40
2023-03-05T00:22:45.905Z,85.37
2023-03-05T00:25:12.444Z,85.17
2023-03-05T00:27:38.943Z,85.06
2023-03-05T00:30:05.920Z,85.16
2023-03-05T00:32:32.465Z,85.45
2023-03-05T00:34:58.905Z,85.19
2023-03-05T00:37:25.320Z,85.51
2023-03-05T00:39:51.763Z,85.21
2023-03-05T00:42:18.068Z,85.11
2023-03-05T00:44:44.481Z,85.24
2023-03-05T00:47:10.968Z,85.47
2023-03-05T00:49:37.334Z,85.63
2023-03-05T00:52:03.872Z,85.40
2023-03-05T00:54:30.309Z,85.43
2023-03-05T00:56:56.684Z,84.91
2023-03-05T00:59:23.160Z,85.05
2023-03-05T01:01:49.675Z,85.22
2023-03-05T01:04:16.208Z,85.06
2023-03-05T01:06:44.802Z,84.96
2023-03-05T01:09:11.560Z,84.95
2023-03-05T01:11:37.999Z,84.88
2023-03-05T01:14:04.468Z,84.59
2023-03-05T01:16:31.058Z,84.91
2023-03-05T01:18:57.526Z,84.58
2023-03-05T01:21:23.980Z,84.78
2023-03-05T01:23:50.739Z,84.67
2023-03-05T01:26:17.193Z,84.71
2023-03-05T01:28:43.515Z,84.71
2023-03-05T01:31:10.571Z,84.29
2023-03-05T01:33:37.368Z,84.49
2023-03-05T01:36:07.798Z,84.71
2023-03-05T01:38:34.299Z,84.23
2023-03-05T01:41:00.652Z,84.58
2023-03-05T01:43:29.103Z,84.27
2023-03-05T01:46:37.210Z,84.38
2023-03-05T01:49:10.327Z,83.88
2023-03-05T01:51:42.845Z,84.50
2023-03-05T01:54:11.689Z,84.70
2023-03-05T01:56:40.007Z,84.65
2023-03-05T01:59:07.195Z,84.68
2023-03-05T02:01:40.719Z,84.72
2023-03-05T02:04:08.973Z,84.70
2023-03-05T02:06:36.106Z,84.41
2023-03-05T02:09:02.572Z,84.38
2023-03-05T02:11:29.349Z,84.44
2023-03-05T02:13:56.183Z,84.62
2023-03-05T02:16:22.548Z,84.57
2023-03-05T02:18:48.969Z,84.77
2023-03-05T02:21:28.420Z,84.66
2023-03-05T02:23:54.889Z,84.96
2023-03-05T02:26:21.310Z,84.90
2023-03-05T02:28:52.282Z,84.85
2023-03-05T02:31:21.088Z,84.83
2023-03-05T02:33:48.283Z,84.75
2023-03-05T02:36:15.111Z,84.90
2023-03-05T02:38:42.434Z,84.73
2023-03-05T02:41:09.378Z,84.84
2023-03-05T02:43:36.055Z,84.55
2023-03-05T02:46:02.407Z,84.64
2023-03-05T02:48:28.847Z,85.08
2023-03-05T02:50:56.145Z,84.88
2023-03-05T02:53:23.674Z,84.78
2023-03-05T02:55:50.540Z,85.37
2023-03-05T02:58:17.590Z,85.16
2023-03-05T03:00:44.522Z,85.04
2023-03-05T03:03:11.171Z,85.12
2023-03-05T03:05:37.570Z,84.91
2023-03-05T03:08:04.522Z,85.35
2023-03-05T03:10:31.122Z,85.48
2023-03-05T03:12:57.661Z,85.28
2023-03-05T03:15:24.354Z,85.66
2023-03-05T03:17:50.763Z,85.72
2023-03-05T03:20:18.556Z,85.84
2023-03-05T03:22:46.377Z,85.62
2023-03-05T03:25:21.520Z,85.32
2023-03-05T03:27:47.910Z,85.26
2023-03-05T03:30:15.655Z,84.80
2023-03-05T03:32:42.133Z,84.96
2023-03-05T03:35:10.244Z,84.73
2023-03-05T03:37:36.855Z,85.37
2023-03-05T03:40:05.779Z,84.89
2023-03-05T03:42:33.236Z,85.00
2023-03-05T03:45:00.476Z,84.99
2023-03-05T03:47:26.838Z,84.92
2023-03-05T03:49:56.675Z,84.93
2023-03-05T03:52:23.080Z,85.08
2023-03-05T03:54:52.401Z,84.97
2023-03-05T03:57:19.166Z,84.74
2023-03-05T03:59:46.050Z,85.14
2023-03-05T04:02:12.581Z,85.18
2023-03-05T04:04:38.976Z,84.78
2023-03-05T04:07:05.500Z,84.55
2023-03-05T04:09:31.857Z,84.73
2023-03-05T04:11:58.172Z,84.49
2023-03-05T04:14:26.534Z,84.27
2023-03-05T04:16:53.584Z,83.99
2023-03-05T04:19:20.999Z,83.65
2023-03-05T04:21:47.546Z,83.92
2023-03-05T04:24:13.968Z,83.34
2023-03-05T04:26:40.344Z,83.11
2023-03-05T04:29:06.873Z,83.09
2023-03-05T04:31:33.429Z,83.04
2023-03-05T04:34:00.117Z,83.00
2023-03-05T04:36:26.640Z,83.05
2023-03-05T04:38:53.051Z,82.79
2023-03-05T04:41:19.431Z,82.64
2023-03-05T04:43:45.806Z,82.76
2023-03-05T04:46:12.198Z,82.89
2023-03-05T04:48:38.673Z,82.87
2023-03-05T04:51:05.440Z,83.24
2023-03-05T04:53:31.876Z,82.98
2023-03-05T04:56:01.425Z,83.26
2023-03-05T04:58:28.629Z,83.25
2023-03-05T05:00:55.022Z,83.42
2023-03-05T05:03:21.432Z,83.57
2023-03-05T05:05:54.904Z,83.37
2023-03-05T05:08:21.532Z,83.61
2023-03-05T05:10:58.894Z,83.75
2023-03-05T05:13:26.442Z,84.04
2023-03-05T05:15:53.645Z,83.86
2023-03-05T05:18:20.419Z,84.34
2023-03-05T05:20:47.580Z,84.31
2023-03-05T05:23:14.398Z,84.59
2023-03-05T05:25:40.933Z,84.33
2023-03-05T05:28:07.334Z,84.49
2023-03-05T05:30:33.694Z,84.61
2023-03-05T05:33:00.296Z,84.61
2023-03-05T05:35:26.934Z,84.64
2023-03-05T05:37:53.349Z,84.55
2023-03-05T05:40:19.890Z,84.40
2023-03-05T05:42:46.308Z,84.60
2023-03-05T05:45:12.776Z,84.85
2023-03-05T05:47:39.172Z,85.06
2023-03-05T05:50:06.079Z,85.03
2023-03-05T05:52:32.438Z,84.88
2023-03-05T05:54:58.757Z,84.82
2023-03-05T05:57:25.220Z,84.86
2023-03-05T05:59:51.658Z,85.48
2023-03-05T06:02:18.043Z,85.14
2023-03-05T06:04:44.522Z,84.92
2023-03-05T06:07:10.860Z,85.16
2023-03-05T06:09:37.246Z,85.29
2023-03-05T06:12:04.280Z,85.69
2023-03-05T06:14:30.621Z,85.80
2023-03-05T06:16:57.180Z,85.56
2023-03-05T06:19:23.573Z,85.43
2023-03-05T06:21:49.993Z,85.91
2023-03-05T06:24:16.491Z,85.69
2023-03-05T06:26:42.854Z,85.62
2023-03-05T06:29:09.240Z,85.36
2023-03-05T06:31:37.255Z,85.05
2023-03-05T06:34:03.853Z,85.65
2023-03-05T06:36:30.692Z,85.57
2023-03-05T06:38:58.292Z,85.33
2023-03-05T06:41:29.557Z,85.45
2023-03-05T06:43:56.585Z,85.12
2023-03-05T06:46:29.384Z,85.14
2023-03-05T06:48:57.888Z,85.08
2023-03-05T06:51:29.836Z,84.73
2023-03-05T06:53:59.327Z,84.77
2023-03-05T06:56:25.887Z,85.03
2023-03-05T06:58:52.601Z,84.79
2023-03-05T07:01:20.518Z,84.83
2023-03-05T07:03:51.491Z,84.74
2023-03-05T07:06:18.614Z,84.29
2023-03-05T07:08:45.303Z,84.55
2023-03-05T07:11:13.797Z,84.45
2023-03-05T07:13:40.321Z,84.42
2023-03-05T07:16:08.977Z,84.32
2023-03-05T07:18:35.686Z,84.64
2023-03-05T07:21:04.478Z,84.93
2023-03-05T07:23:31.241Z,84.61
2023-03-05T07:25:57.838Z,84.29
2023-03-05T07:28:24.174Z,84.47
2023-03-05T07:31:02.277Z,84.23
2023-03-05T07:33:28.922Z,83.58
2023-03-05T07:35:56.098Z,83.47
2023-03-05T07:38:22.789Z,83.38
2023-03-05T07:40:49.708Z,83.83
2023-03-05T07:43:16.221Z,83.85
2023-03-05T07:45:44.118Z,83.55
2023-03-05T07:48:16.778Z,83.40
2023-03-05T07:50:44.005Z,83.13
2023-03-05T07:53:10.585Z,83.38
2023-03-05T07:55:43.134Z,83.09
2023-03-05T07:58:09.998Z,83.18
2023-03-05T08:00:36.592Z,82.97
2023-03-05T08:03:03.276Z,82.76
2023-03-05T08:05:29.604Z,82.69
2023-03-05T08:07:56.043Z,82.65
2023-03-05T08:10:22.612Z,82.46
2023-03-05T08:12:49.092Z,82.05
2023-03-05T08:15:15.722Z,81.88
2023-03-05T08:17:42.101Z,81.46
2023-03-05T08:20:11.049Z,81.62
2023-03-05T08:22:38.316Z,80.86
2023-03-05T08:25:06.110Z,81.56
2023-03-05T08:27:32.565Z,81.44
2023-03-05T08:29:58.979Z,80.71
2023-03-05T08:32:25.420Z,80.92
2023-03-05T08:34:57.133Z,80.74
2023-03-05T08:37:23.582Z,80.26
2023-03-05T08:39:50.126Z,80.32
2023-03-05T08:42:16.503Z,80.33
2023-03-05T08:44:42.899Z,80.79
2023-03-05T08:47:09.241Z,80.89
2023-03-05T08:49:35.677Z,80.73
2023-03-05T08:52:02.062Z,80.65
2023-03-05T08:54:28.396Z,80.56
2023-03-05T08:56:54.780Z,80.53
2023-03-05T08:59:21.142Z,80.17
2023-03-05T09:01:47.847Z,80.21
2023-03-05T09:04:15.438Z,79.80
2023-03-05T09:06:41.785Z,80.48
2023-03-05T09:09:09.468Z,80.27
2023-03-05T09:11:36.979Z,80.22
2023-03-05T09:14:04.575Z,80.24
2023-03-05T09:16:31.058Z,80.39
2023-03-05T09:18:58.811Z,80.45
2023-03-05T09:21:25.915Z,80.28
2023-03-05T09:23:52.300Z,80.26
2023-03-05T09:26:20.056Z,80.67
2023-03-05T09:28:47.647Z,80.50
2023-03-05T09:31:14.132Z,80.60
2023-03-05T09:33:40.907Z,80.70
2023-03-05T09:36:21.779Z,80.55
2023-03-05T09:38:48.510Z,80.85
2023-03-05T09:41:17.340Z,80.43
2023-03-05T09:44:05.005Z,80.78
2023-03-05T09:46:36.360Z,80.88
2023-03-05T09:49:21.049Z,80.38
2023-03-05T09:51:54.360Z,80.72
2023-03-05T09:54:24.997Z,80.93
2023-03-05T09:56:58.278Z,80.50
2023-03-05T09:59:47.436Z,80.22
2023-03-05T10:02:24.344Z,79.71
2023-03-05T10:05:03.984Z,79.81
2023-03-05T10:07:33.483Z,79.66
2023-03-05T10:10:09.936Z,79.65
2023-03-05T10:12:42.147Z,79.51
2023-03-05T10:15:15.657Z,78.93
2023-03-05T10:18:25.117Z,79.02
2023-03-05T10:20:58.046Z,78.87
2023-03-05T10:23:29.724Z,79.13
2023-03-05T10:26:13.851Z,78.58
2023-03-05T10:28:57.637Z,79.91
2023-03-05T10:31:40.195Z,81.65
2023-03-05T10:34:12.622Z,83.67
2023-03-05T10:36:48.183Z,84.96
2023-03-05T10:39:57.748Z,86.40
2023-03-05T10:42:24.176Z,87.69
2023-03-05T10:44:50.491Z,88.08
2023-03-05T10:47:28.558Z,88.73
2023-03-05T10:49:56.931Z,88.81
2023-03-05T10:52:30.958Z,88.98
2023-03-05T10:54:57.358Z,89.54
2023-03-05T10:57:26.558Z,89.37
2023-03-05T11:00:27.843Z,88.98
2023-03-05T11:02:54.274Z,90.17
2023-03-05T11:05:35.193Z,90.77
2023-03-05T11:08:17.601Z,90.88
2023-03-05T11:10:43.979Z,90.79
2023-03-05T11:13:26.356Z,91.44
2023-03-05T11:16:01.224Z,91.71
2023-03-05T11:18:31.406Z,92.19
2023-03-05T11:21:11.158Z,92.16
2023-03-05T11:23:37.524Z,92.21
2023-03-05T11:26:13.090Z,92.10
2023-03-05T11:28:52.558Z,91.92
2023-03-05T11:31:19.060Z,91.21
2023-03-05T11:34:21.479Z,91.73
2023-03-05T11:36:50.996Z,91.92
2023-03-05T11:39:22.484Z,92.11
2023-03-05T11:41:51.273Z,92.21
2023-03-05T11:44:23.182Z,92.24
2023-03-05T11:47:18.361Z,91.92
2023-03-05T11:49:47.596Z,92.07
2023-03-05T11:52:28.399Z,92.69
2023-03-05T11:55:03.922Z,92.80
2023-03-05T11:57:41.616Z,93.01
2023-03-05T12:00:12.891Z,93.05
2023-03-05T12:02:39.310Z,93.58
2023-03-05T12:05:07.573Z,93.58
2023-03-05T12:07:45.234Z,93.30
2023-03-05T12:10:17.718Z,93.88
2023-03-05T12:12:57.947Z,93.75
2023-03-05T12:15:32.051Z,94.32
2023-03-05T12:18:26.086Z,94.48
2023-03-05T12:21:16.985Z,94.78
2023-03-05T12:23:56.135Z,94.82
2023-03-05T12:27:04.013Z,94.86
2023-03-05T12:29:33.732Z,94.55
2023-03-05T12:32:01.318Z,93.91
2023-03-05T12:34:45.304Z,94.18
2023-03-05T12:37:12.597Z,94.28
2023-03-05T12:39:45.432Z,93.80
2023-03-05T12:42:43.730Z,92.63
2023-03-05T12:45:10.123Z,92.63
2023-03-05T12:47:40.332Z,92.09
2023-03-05T12:50:29.029Z,92.27
2023-03-05T12:53:18.148Z,91.67
2023-03-05T12:55:47.274Z,90.88
2023-03-05T12:58:42.894Z,89.55
2023-03-05T13:01:47.755Z,88.49
2023-03-05T13:04:22.278Z,87.79
2023-03-05T13:07:05.621Z,87.86
2023-03-05T13:09:36.283Z,87.22
2023-03-05T13:12:09.338Z,86.52
2023-03-05T13:14:47.714Z,87.00
2023-03-05T13:17:29.005Z,86.47
2023-03-05T13:19:55.930Z,86.13
2023-03-05T13:22:24.577Z,85.23
2023-03-05T13:25:20.564Z,85.33
2023-03-05T13:27:47.057Z,84.79
2023-03-05T13:30:26.521Z,84.63
2023-03-05T13:33:00.333Z,84.76
2023-03-05T13:35:26.936Z,84.01
2023-03-05T13:37:53.404Z,82.98
2023-03-05T13:40:23.521Z,82.70
2023-03-05T13:42:50.562Z,81.92
2023-03-05T13:45:31.495Z,81.76
2023-03-05T13:48:00.537Z,81.47
2023-03-05T13:50:37.549Z,80.64
2023-03-05T13:53:22.372Z,80.42
2023-03-05T13:55:50.975Z,79.97
2023-03-05T13:58:52.099Z,79.18
2023-03-05T14:01:38.368Z,79.02
2023-03-05T14:04:13.881Z,79.28
2023-03-05T14:07:18.118Z,79.28
2023-03-05T14:09:47.621Z,78.53
2023-03-05T14:12:33.705Z,78.36
2023-03-05T14:15:02.476Z,77.95
2023-03-05T14:17:39.688Z,77.84
2023-03-05T14:20:23.029Z,77.33
2023-03-05T14:22:52.037Z,77.71
2023-03-05T14:25:42.337Z,77.47
2023-03-05T14:28:17.949Z,77.21
2023-03-05T14:30:53.130Z,77.12
2023-03-05T14:33:26.855Z,77.43
2023-03-05T14:35:54.132Z,78.13
2023-03-05T14:38:27.656Z,78.39
2023-03-05T14:40:54.273Z,78.99
2023-03-05T14:43:20.657Z,78.80
2023-03-05T14:45:47.866Z,78.83
2023-03-05T14:48:18.703Z,78.77
2023-03-05T14:50:56.980Z,78.74
2023-03-05T14:53:31.341Z,78.56
2023-03-05T14:55:57.731Z,78.97
2023-03-05T14:58:27.851Z,79.37
2023-03-05T15:00:55.512Z,79.12
2023-03-05T15:03:23.139Z,79.09
2023-03-05T15:05:52.338Z,79.17
2023-03-05T15:08:25.634Z,79.09
2023-03-05T15:10:52.873Z,78.72
2023-03-05T15:13:21.115Z,79.01
2023-03-05T15:15:49.216Z,78.92
2023-03-05T15:18:18.450Z,79.35
2023-03-05T15:20:46.061Z,79.63
2023-03-05T15:23:13.084Z,79.46
2023-03-05T15:25:39.962Z,79.75
2023-03-05T15:28:06.571Z,79.97
2023-03-05T15:30:38.558Z,80.26
2023-03-05T15:33:08.615Z,80.75
2023-03-05T15:35:35.839Z,80.80
2023-03-05T15:38:02.355Z,80.25
2023-03-05T15:40:29.356Z,80.72
2023-03-05T15:42:57.000Z,80.86
2023-03-05T15:45:24.125Z,80.48
2023-03-05T15:47:52.175Z,80.96
2023-03-05T15:50:20.366Z,81.49
2023-03-05T15:52:47.244Z,82.13
2023-03-05T15:55:13.877Z,81.83
2023-03-05T15:57:45.585Z,82.21
2023-03-05T16:00:13.846Z,82.34
2023-03-05T16:02:40.275Z,81.87
2023-03-05T16:05:07.934Z,82.53
2023-03-05T16:07:36.885Z,82.54
2023-03-05T16:10:04.689Z,82.23
2023-03-05T16:12:40.552Z,82.20
2023-03-05T16:15:09.644Z,82.24
2023-03-05T16:17:37.083Z,82.58
2023-03-05T16:20:05.081Z,82.83
2023-03-05T16:22:31.670Z,82.28
2023-03-05T16:24:59.103Z,81.79
2023-03-05T16:27:27.047Z,81.49
2023-03-05T16:29:53.468Z,82.04
2023-03-05T16:32:19.955Z,81.64
2023-03-05T16:34:46.336Z,81.61
2023-03-05T16:37:19.868Z,81.41
2023-03-05T16:39:46.961Z,81.00
2023-03-05T16:42:13.798Z,81.22
2023-03-05T16:44:41.534Z,80.96
2023-03-05T16:47:09.302Z,80.98
2023-03-05T16:49:36.563Z,81.00
2023-03-05T16:52:17.750Z,81.40
2023-03-05T16:54:45.272Z,81.34
2023-03-05T16:57:11.806Z,81.39
2023-03-05T16:59:38.302Z,81.71
2023-03-05T17:02:05.807Z,81.76
2023-03-05T17:04:32.570Z,81.59
2023-03-05T17:06:59.111Z,81.78
2023-03-05T17:09:25.479Z,82.11
2023-03-05T17:11:52.981Z,82.32
2023-03-05T17:14:19.332Z,81.88
2023-03-05T17:16:45.975Z,82.37
2023-03-05T17:19:12.353Z,81.86
2023-03-05T17:21:41.885Z,82.13
2023-03-05T17:24:09.813Z,82.15
2023-03-05T17:26:36.507Z,81.99
2023-03-05T17:29:04.042Z,81.71
2023-03-05T17:31:30.512Z,82.18
2023-03-05T17:33:57.440Z,82.04
2023-03-05T17:36:24.474Z,82.02
2023-03-05T17:38:51.665Z,82.15
2023-03-05T17:41:18.882Z,81.78
2023-03-05T17:43:45.390Z,82.41
2023-03-05T17:46:12.742Z,82.31
2023-03-05T17:48:39.294Z,82.87
2023-03-05T17:51:12.073Z,82.46
2023-03-05T17:53:40.089Z,82.64
2023-03-05T17:56:12.148Z,82.37
2023-03-05T17:58:38.908Z,82.96
2023-03-05T18:01:06.872Z,82.59
2023-03-05T18:03:33.773Z,82.43
2023-03-05T18:06:00.184Z,82.52
2023-03-05T18:08:26.568Z,82.19
2023-03-05T18:10:53.709Z,82.44
2023-03-05T18:13:20.249Z,82.53
2023-03-05T18:15:49.615Z,82.63
2023-03-05T18:18:17.682Z,82.27
2023-03-05T18:20:45.262Z,82.27
2023-03-05T18:23:11.680Z,82.04
2023-03-05T18:25:38.113Z,81.95
2023-03-05T18:28:07.900Z,81.81
2023-03-05T18:30:34.606Z,81.80
2023-03-05T18:33:01.383Z,81.77
2023-03-05T18:35:29.290Z,81.82
2023-03-05T18:37:56.614Z,81.66
2023-03-05T18:40:25.141Z,81.69
2023-03-05T18:42:51.618Z,81.85
2023-03-05T18:45:20.116Z,81.63
2023-03-05T18:47:47.877Z,81.73
2023-03-05T18:50:16.893Z,81.82
2023-03-05T18:52:43.482Z,81.98
2023-03-05T18:55:18.979Z,82.21
2023-03-05T18:57:45.564Z,82.07
2023-03-05T19:00:17.292Z,82.18
2023-03-05T19:02:43.677Z,82.28
2023-03-05T19:05:10.879Z,82.37
2023-03-05T19:07:37.960Z,82.68
2023-03-05T19:10:07.465Z,82.91
2023-03-05T19:13:27.983Z,82.89
2023-03-05T19:15:54.466Z,83.09
2023-03-05T19:19:14.777Z,83.29
2023-03-05T19:21:45.940Z,83.36
2023-03-05T19:24:13.238Z,83.76
2023-03-05T19:26:40.362Z,83.68
2023-03-05T19:29:07.539Z,83.89
2023-03-05T19:31:34.044Z,83.66
2023-03-05T19:34:01.183Z,83.59
2023-03-05T19:36:27.712Z,83.66
2023-03-05T19:38:54.325Z,83.62
2023-03-05T19:41:21.671Z,84.01
2023-03-05T19:43:49.860Z,84.12
2023-03-05T19:46:17.438Z,84.39
2023-03-05T19:48:43.961Z,84.13
2023-03-05T19:51:12.238Z,84.35
2023-03-05T19:53:39.838Z,85.01
2023-03-05T19:56:07.124Z,84.73
2023-03-05T19:58:34.250Z,84.54
2023-03-05T20:01:25.798Z,84.74
2023-03-05T20:03:54.508Z,85.03
2023-03-05T20:06:22.112Z,85.34
2023-03-05T20:08:49.370Z,85.46
2023-03-05T20:11:17.458Z,85.40
2023-03-05T20:13:44.397Z,85.27
2023-03-05T20:16:19.516Z,85.46
2023-03-05T20:18:50.168Z,85.17
2023-03-05T20:21:21.493Z,85.00
2023-03-05T20:23:47.992Z,85.42
2023-03-05T20:26:14.352Z,85.14
2023-03-05T20:28:40.958Z,85.13
2023-03-05T20:31:07.325Z,84.91
2023-03-05T20:33:33.760Z,85.07
2023-03-05T20:36:01.307Z,84.66
2023-03-05T20:38:31.948Z,84.75
2023-03-05T20:41:02.416Z,84.49
2023-03-05T20:43:34.230Z,84.72
2023-03-05T20:46:01.923Z,85.06
2023-03-05T20:48:33.405Z,84.43
2023-03-05T20:51:11.423Z,84.43
2023-03-05T20:53:37.846Z,84.60
2023-03-05T20:56:04.405Z,84.58
2023-03-05T20:58:30.808Z,84.49
2023-03-05T21:00:57.366Z,84.16
2023-03-05T21:03:25.559Z,84.73
2023-03-05T21:05:55.757Z,84.90
2023-03-05T21:08:22.373Z,85.08
2023-03-05T21:10:48.878Z,85.24
2023-03-05T21:13:23.217Z,85.48
2023-03-05T21:15:49.580Z,85.63
2023-03-05T21:18:16.038Z,85.39
2023-03-05T21:20:42.689Z,85.61
2023-03-05T21:23:09.085Z,85.71
2023-03-05T21:25:35.591Z,86.07
2023-03-05T21:28:09.360Z,85.65
2023-03-05T21:30:43.430Z,86.22
2023-03-05T21:33:12.645Z,86.04
2023-03-05T21:35:39.774Z,86.42
2023-03-05T21:38:08.256Z,86.19
2023-03-05T21:40:36.785Z,86.54
2023-03-05T21:43:04.132Z,87.41
2023-03-05T21:45:30.889Z,87.68
2023-03-05T21:47:59.106Z,88.06
2023-03-05T21:50:26.014Z,88.70
2023-03-05T21:52:52.870Z,89.04
2023-03-05T21:55:35.194Z,89.32
2023-03-05T21:58:02.032Z,89.63
2023-03-05T22:00:28.572Z,89.98
2023-03-05T22:02:55.050Z,90.25
2023-03-05T22:05:21.504Z,90.81
2023-03-05T22:07:48.074Z,90.59
2023-03-05T22:10:17.426Z,90.74
2023-03-05T22:13:05.567Z,91.28
2023-03-05T22:15:32.183Z,91.16
2023-03-05T22:17:58.734Z,91.42
2023-03-05T22:20:25.675Z,91.53
2023-03-05T22:22:52.142Z,91.74
2023-03-05T22:25:18.653Z,92.22
2023-03-05T22:27:45.412Z,92.08
2023-03-05T22:30:13.160Z,92.45
2023-03-05T22:32:39.624Z,92.41
2023-03-05T22:35:07.574Z,92.39
2023-03-05T22:37:34.007Z,92.44
2023-03-05T22:40:00.460Z,92.60
2023-03-05T22:42:26.996Z,92.29
2023-03-05T22:44:57.736Z,92.35
2023-03-05T22:47:25.384Z,92.73
2023-03-05T22:49:51.977Z,92.85
2023-03-05T22:52:18.415Z,92.92
2023-03-05T22:54:44.945Z,93.00
2023-03-05T22:57:12.308Z,92.99
2023-03-05T22:59:38.658Z,93.34
2023-03-05T23:02:05.228Z,93.60
2023-03-05T23:04:53.100Z,93.64
2023-03-05T23:07:22.404Z,93.77
2023-03-05T23:10:14.303Z,92.96
2023-03-05T23:12:44.460Z,93.19
2023-03-05T23:15:14.466Z,93.44
2023-03-05T23:17:40.997Z,93.75
2023-03-05T23:20:11.416Z,93.51
2023-03-05T23:22:39.250Z,93.54
2023-03-05T23:25:06.774Z,93.18
2023-03-05T23:27:33.297Z,93.61
2023-03-05T23:30:19.830Z,93.49
2023-03-05T23:32:55.013Z,93.91
2023-03-05T23:35:28.828Z,93.57
2023-03-05T23:37:57.332Z,93.61
2023-03-05T23:40:26.526Z,93.86
2023-03-05T23:42:53.222Z,93.51
2023-03-05T23:45:21.164Z,93.85
2023-03-05T23:47:48.571Z,93.72
2023-03-05T23:50:27.912Z,93.34
2023-03-05T23:52:54.563Z,93.41
2023-03-05T23:55:26.812Z,93.38
2023-03-05T23:57:54.119Z,93.16
